sensor_id;sensor_type;location;lat;lon;timestamp;pressure;altitude;pressure_sealevel;temperature
14666;BMP280;7420;53.574;10.040;2023-08-20T00:00:18;39659.06;;;-136.87
14666;BMP280;7420;53.574;10.040;2023-08-20T00:05:11;39630.59;;;-136.87
14666;BMP280;7420;53.574;10.040;2023-08-20T00:07:37;39622.47;;;-136.87
14666;BMP280;7420;53.574;10.040;2023-08-20T00:10:02;39602.16;;;-136.87
14666;BMP280;7420;53.574;10.040;2023-08-20T00:12:30;39687.50;;;-136.87
14666;BMP280;7420;53.574;10.040;2023-08-20T00:15:00;39740.31;;;-136.87
14666;BMP280;7420;53.574;10.040;2023-08-20T00:17:33;39919.16;;;-136.87
14666;BMP280;7420;53.574;10.040;2023-08-20T00:19:58;40069.53;;;-136.87
14666;BMP280;7420;53.574;10.040;2023-08-20T00:22:24;40008.56;;;-136.87
14666;BMP280;7420;53.574;10.040;2023-08-20T00:24:51;40057.34;;;-136.87
14666;BMP280;7420;53.574;10.040;2023-08-20T00:27:17;40138.63;;;-136.87
14666;BMP280;7420;53.574;10.040;2023-08-20T00:29:43;40126.44;;;-136.87
14666;BMP280;7420;53.574;10.040;2023-08-20T00:32:08;40221.94;;;-136.87
14666;BMP280;7420;53.574;10.040;2023-08-20T00:34:34;40221.94;;;-136.87
14666;BMP280;7420;53.574;10.040;2023-08-20T00:37:00;40256.50;;;-136.87
14666;BMP280;7420;53.574;10.040;2023-08-20T00:39:26;40289.03;;;-136.87
14666;BMP280;7420;53.574;10.040;2023-08-20T00:41:51;40266.66;;;-136.87
14666;BMP280;7420;53.574;10.040;2023-08-20T00:44:17;40268.69;;;-136.87
14666;BMP280;7420;53.574;10.040;2023-08-20T00:46:42;40471.94;;;-136.87
14666;BMP280;7420;53.574;10.040;2023-08-20T00:49:08;40500.41;;;-136.87
14666;BMP280;7420;53.574;10.040;2023-08-20T00:51:34;40471.94;;;-136.87
14666;BMP280;7420;53.574;10.040;2023-08-20T00:54:00;40534.94;;;-136.87
14666;BMP280;7420;53.574;10.040;2023-08-20T00:56:26;40528.84;;;-136.87
14666;BMP280;7420;53.574;10.040;2023-08-20T00:58:53;40597.97;;;-136.87
14666;BMP280;7420;53.574;10.040;2023-08-20T01:01:19;40547.13;;;-136.87
14666;BMP280;7420;53.574;10.040;2023-08-20T01:03:44;40650.81;;;-136.87
14666;BMP280;7420;53.574;10.040;2023-08-20T01:06:19;40593.88;;;-136.87
14666;BMP280;7420;53.574;10.040;2023-08-20T01:08:47;40695.53;;;-136.87
14666;BMP280;7420;53.574;10.040;2023-08-20T01:11:22;40673.16;;;-136.87
14666;BMP280;7420;53.574;10.040;2023-08-20T01:13:49;40726.00;;;-136.87
14666;BMP280;7420;53.574;10.040;2023-08-20T01:16:15;40699.59;;;-136.87
14666;BMP280;7420;53.574;10.040;2023-08-20T01:18:40;40898.78;;;-136.87
14666;BMP280;7420;53.574;10.040;2023-08-20T01:21:47;40882.53;;;-136.87
14666;BMP280;7420;53.574;10.040;2023-08-20T01:24:12;40878.47;;;-136.87
14666;BMP280;7420;53.574;10.040;2023-08-20T01:29:19;41004.50;;;-136.87
14666;BMP280;7420;53.574;10.040;2023-08-20T01:31:45;41488.38;;;-136.87
14666;BMP280;7420;53.574;10.040;2023-08-20T01:34:11;41537.19;;;-136.87
14666;BMP280;7420;53.574;10.040;2023-08-20T01:36:37;41614.44;;;-136.87
14666;BMP280;7420;53.574;10.040;2023-08-20T01:39:03;41683.56;;;-136.87
14666;BMP280;7420;53.574;10.040;2023-08-20T01:41:30;41732.38;;;-136.87
14666;BMP280;7420;53.574;10.040;2023-08-20T01:43:55;41693.75;;;-136.87
14666;BMP280;7420;53.574;10.040;2023-08-20T01:46:20;41695.78;;;-136.87
14666;BMP280;7420;53.574;10.040;2023-08-20T01:48:46;41785.25;;;-136.87
14666;BMP280;7420;53.574;10.040;2023-08-20T01:51:11;41840.16;;;-136.87
14666;BMP280;7420;53.574;10.040;2023-08-20T01:53:37;41854.38;;;-136.87
14666;BMP280;7420;53.574;10.040;2023-08-20T01:56:02;41952.00;;;-136.87
14666;BMP280;7420;53.574;10.040;2023-08-20T01:58:27;41960.13;;;-136.87
14666;BMP280;7420;53.574;10.040;2023-08-20T02:00:53;42008.94;;;-136.87
14666;BMP280;7420;53.574;10.040;2023-08-20T02:03:18;42094.34;;;-136.87
14666;BMP280;7420;53.574;10.040;2023-08-20T02:05:44;42114.69;;;-136.87
14666;BMP280;7420;53.574;10.040;2023-08-20T02:08:09;42021.16;;;-136.87
14666;BMP280;7420;53.574;10.040;2023-08-20T02:10:34;42002.84;;;-136.87
14666;BMP280;7420;53.574;10.040;2023-08-20T02:13:00;42033.34;;;-136.87
14666;BMP280;7420;53.574;10.040;2023-08-20T02:15:25;42100.47;;;-136.87
14666;BMP280;7420;53.574;10.040;2023-08-20T02:17:51;42061.81;;;-136.87
14666;BMP280;7420;53.574;10.040;2023-08-20T02:20:16;41954.03;;;-136.87
14666;BMP280;7420;53.574;10.040;2023-08-20T02:22:42;42053.69;;;-136.87
14666;BMP280;7420;53.574;10.040;2023-08-20T02:25:08;42041.47;;;-136.87
14666;BMP280;7420;53.574;10.040;2023-08-20T02:27:33;42149.25;;;-136.87
14666;BMP280;7420;53.574;10.040;2023-08-20T02:29:59;42069.94;;;-136.87
14666;BMP280;7420;53.574;10.040;2023-08-20T02:32:24;42094.34;;;-136.87
14666;BMP280;7420;53.574;10.040;2023-08-20T02:34:50;42082.16;;;-136.87
14666;BMP280;7420;53.574;10.040;2023-08-20T02:37:16;42220.44;;;-136.87
14666;BMP280;7420;53.574;10.040;2023-08-20T02:39:41;42253.00;;;-136.87
14666;BMP280;7420;53.574;10.040;2023-08-20T02:42:06;42332.31;;;-136.87
14666;BMP280;7420;53.574;10.040;2023-08-20T02:44:32;42297.72;;;-136.87
14666;BMP280;7420;53.574;10.040;2023-08-20T02:46:57;42194.00;;;-136.87
14666;BMP280;7420;53.574;10.040;2023-08-20T02:49:22;42183.84;;;-136.87
14666;BMP280;7420;53.574;10.040;2023-08-20T02:51:48;42242.81;;;-136.87
14666;BMP280;7420;53.574;10.040;2023-08-20T02:54:13;42289.59;;;-136.87
14666;BMP280;7420;53.574;10.040;2023-08-20T02:56:38;42224.50;;;-136.87
14666;BMP280;7420;53.574;10.040;2023-08-20T02:59:04;42183.84;;;-136.87
14666;BMP280;7420;53.574;10.040;2023-08-20T03:01:30;42212.31;;;-136.87
14666;BMP280;7420;53.574;10.040;2023-08-20T03:03:55;42411.63;;;-136.87
14666;BMP280;7420;53.574;10.040;2023-08-20T03:06:21;42379.09;;;-136.87
14666;BMP280;7420;53.574;10.040;2023-08-20T03:08:46;42417.72;;;-136.87
14666;BMP280;7420;53.574;10.040;2023-08-20T03:11:11;42444.16;;;-136.87
14666;BMP280;7420;53.574;10.040;2023-08-20T03:13:36;42566.22;;;-136.87
14666;BMP280;7420;53.574;10.040;2023-08-20T03:16:02;42600.78;;;-136.87
14666;BMP280;7420;53.574;10.040;2023-08-20T03:18:28;42545.88;;;-136.87
14666;BMP280;7420;53.574;10.040;2023-08-20T03:20:54;42541.81;;;-136.87
14666;BMP280;7420;53.574;10.040;2023-08-20T03:23:21;42545.88;;;-136.87
14666;BMP280;7420;53.574;10.040;2023-08-20T03:25:46;42592.66;;;-136.87
14666;BMP280;7420;53.574;10.040;2023-08-20T03:28:11;42714.69;;;-136.87
14666;BMP280;7420;53.574;10.040;2023-08-20T03:30:37;42604.88;;;-136.87
14666;BMP280;7420;53.574;10.040;2023-08-20T03:33:02;42700.47;;;-136.87
14666;BMP280;7420;53.574;10.040;2023-08-20T03:35:28;42554.00;;;-136.87
14666;BMP280;7420;53.574;10.040;2023-08-20T03:37:53;42549.94;;;-136.87
14666;BMP280;7420;53.574;10.040;2023-08-20T03:40:19;42647.56;;;-136.87
14666;BMP280;7420;53.574;10.040;2023-08-20T03:42:44;42659.78;;;-136.87
14666;BMP280;7420;53.574;10.040;2023-08-20T03:45:09;42604.88;;;-136.87
14666;BMP280;7420;53.574;10.040;2023-08-20T03:47:35;42667.91;;;-136.87
14666;BMP280;7420;53.574;10.040;2023-08-20T03:50:02;42698.44;;;-136.87
14666;BMP280;7420;53.574;10.040;2023-08-20T03:52:27;42694.38;;;-136.87
14666;BMP280;7420;53.574;10.040;2023-08-20T03:54:52;42787.94;;;-136.87
14666;BMP280;7420;53.574;10.040;2023-08-20T03:57:18;42755.38;;;-136.87
14666;BMP280;7420;53.574;10.040;2023-08-20T03:59:43;42789.97;;;-136.87
14666;BMP280;7420;53.574;10.040;2023-08-20T04:02:10;42853.03;;;-136.87
14666;BMP280;7420;53.574;10.040;2023-08-20T04:04:35;42924.22;;;-136.87
14666;BMP280;7420;53.574;10.040;2023-08-20T04:07:02;42883.53;;;-136.87
14666;BMP280;7420;53.574;10.040;2023-08-20T04:09:27;42956.78;;;-136.87
14666;BMP280;7420;53.574;10.040;2023-08-20T04:11:53;42942.53;;;-136.87
14666;BMP280;7420;53.574;10.040;2023-08-20T04:14:18;42903.88;;;-136.87
14666;BMP280;7420;53.574;10.040;2023-08-20T04:16:44;43072.75;;;-136.87
14666;BMP280;7420;53.574;10.040;2023-08-20T04:19:09;43054.44;;;-136.87
14666;BMP280;7420;53.574;10.040;2023-08-20T04:21:34;43086.97;;;-136.87
14666;BMP280;7420;53.574;10.040;2023-08-20T04:24:00;43001.53;;;-136.87
14666;BMP280;7420;53.574;10.040;2023-08-20T04:26:25;42873.38;;;-136.87
14666;BMP280;7420;53.574;10.040;2023-08-20T04:28:50;42879.47;;;-136.87
14666;BMP280;7420;53.574;10.040;2023-08-20T04:31:16;42851.00;;;-136.87
14666;BMP280;7420;53.574;10.040;2023-08-20T04:33:41;42785.91;;;-136.87
14666;BMP280;7420;53.574;10.040;2023-08-20T04:36:06;42775.72;;;-136.87
14666;BMP280;7420;53.574;10.040;2023-08-20T04:38:32;42924.22;;;-136.87
14666;BMP280;7420;53.574;10.040;2023-08-20T04:40:57;42867.28;;;-136.87
14666;BMP280;7420;53.574;10.040;2023-08-20T04:43:22;42887.59;;;-136.87
14666;BMP280;7420;53.574;10.040;2023-08-20T04:45:49;43040.19;;;-136.87
14666;BMP280;7420;53.574;10.040;2023-08-20T04:48:14;43034.09;;;-136.87
14666;BMP280;7420;53.574;10.040;2023-08-20T04:50:40;43021.88;;;-136.87
14666;BMP280;7420;53.574;10.040;2023-08-20T04:53:05;43117.50;;;-136.87
14666;BMP280;7420;53.574;10.040;2023-08-20T04:55:30;43078.84;;;-136.87
14666;BMP280;7420;53.574;10.040;2023-08-20T04:57:56;42985.25;;;-136.87
14666;BMP280;7420;53.574;10.040;2023-08-20T05:00:22;43001.53;;;-136.87
14666;BMP280;7420;53.574;10.040;2023-08-20T05:02:47;42818.44;;;-136.87
14666;BMP280;7420;53.574;10.040;2023-08-20T05:05:12;42808.28;;;-136.87
14666;BMP280;7420;53.574;10.040;2023-08-20T05:07:38;42708.59;;;-136.87
14666;BMP280;7420;53.574;10.040;2023-08-20T05:10:04;42554.00;;;-136.87
14666;BMP280;7420;53.574;10.040;2023-08-20T05:12:29;42541.81;;;-136.87
14666;BMP280;7420;53.574;10.040;2023-08-20T05:14:55;42556.03;;;-136.87
14666;BMP280;7420;53.574;10.040;2023-08-20T05:17:20;42525.53;;;-136.87
14666;BMP280;7420;53.574;10.040;2023-08-20T05:19:45;42535.69;;;-136.87
14666;BMP280;7420;53.574;10.040;2023-08-20T05:22:11;42493.00;;;-136.87
14666;BMP280;7420;53.574;10.040;2023-08-20T05:24:37;42513.31;;;-136.87
14666;BMP280;7420;53.574;10.040;2023-08-20T05:27:11;42558.06;;;-136.87
14666;BMP280;7420;53.574;10.040;2023-08-20T05:29:39;42381.13;;;-136.87
14666;BMP280;7420;53.574;10.040;2023-08-20T05:32:05;42314.00;;;-136.87
14666;BMP280;7420;53.574;10.040;2023-08-20T05:34:30;42208.25;;;-136.87
14666;BMP280;7420;53.574;10.040;2023-08-20T05:36:55;42191.97;;;-136.87
14666;BMP280;7420;53.574;10.040;2023-08-20T05:39:21;42047.59;;;-136.87
14666;BMP280;7420;53.574;10.040;2023-08-20T05:41:48;41917.44;;;-136.87
14666;BMP280;7420;53.574;10.040;2023-08-20T05:44:13;41876.75;;;-136.87
14666;BMP280;7420;53.574;10.040;2023-08-20T05:46:38;41663.25;;;-136.87
14666;BMP280;7420;53.574;10.040;2023-08-20T05:49:06;41488.38;;;-136.87
14666;BMP280;7420;53.574;10.040;2023-08-20T05:51:31;41500.56;;;-136.87
14666;BMP280;7420;53.574;10.040;2023-08-20T05:53:57;41411.13;;;-136.87
14666;BMP280;7420;53.574;10.040;2023-08-20T05:56:22;41283.03;;;-136.87
14666;BMP280;7420;53.574;10.040;2023-08-20T05:58:47;41276.94;;;-136.87
14666;BMP280;7420;53.574;10.040;2023-08-20T06:01:12;41474.16;;;-136.87
14666;BMP280;7420;53.574;10.040;2023-08-20T06:03:38;41329.78;;;-136.87
14666;BMP280;7420;53.574;10.040;2023-08-20T06:06:03;41555.47;;;-136.87
14666;BMP280;7420;53.574;10.040;2023-08-20T06:08:28;41543.28;;;-136.87
14666;BMP280;7420;53.574;10.040;2023-08-20T06:10:54;41431.44;;;-136.87
14666;BMP280;7420;53.574;10.040;2023-08-20T06:13:19;41248.47;;;-136.87
14666;BMP280;7420;53.574;10.040;2023-08-20T06:15:45;41093.97;;;-136.87
14666;BMP280;7420;53.574;10.040;2023-08-20T06:18:10;41110.22;;;-136.87
14666;BMP280;7420;53.574;10.040;2023-08-20T06:20:35;41057.38;;;-136.87
14666;BMP280;7420;53.574;10.040;2023-08-20T06:23:01;40917.09;;;-136.87
14666;BMP280;7420;53.574;10.040;2023-08-20T06:25:26;40898.78;;;-136.87
14666;BMP280;7420;53.574;10.040;2023-08-20T06:27:51;40908.97;;;-136.87
14666;BMP280;7420;53.574;10.040;2023-08-20T06:30:17;40752.44;;;-136.87
14666;BMP280;7420;53.574;10.040;2023-08-20T06:32:44;40504.47;;;-136.87
14666;BMP280;7420;53.574;10.040;2023-08-20T06:35:09;40427.22;;;-136.87
14666;BMP280;7420;53.574;10.040;2023-08-20T06:37:35;40679.25;;;-136.87
14666;BMP280;7420;53.574;10.040;2023-08-20T06:40:00;40478.03;;;-136.87
14666;BMP280;7420;53.574;10.040;2023-08-20T06:42:26;40207.72;;;-136.87
14666;BMP280;7420;53.574;10.040;2023-08-20T06:44:51;39955.72;;;-136.87
14666;BMP280;7420;53.574;10.040;2023-08-20T06:47:16;40429.25;;;-136.87
14666;BMP280;7420;53.574;10.040;2023-08-20T06:49:42;40835.78;;;-136.87
14666;BMP280;7420;53.574;10.040;2023-08-20T06:52:07;40630.47;;;-136.87
14666;BMP280;7420;53.574;10.040;2023-08-20T06:54:32;40410.97;;;-136.87
14666;BMP280;7420;53.574;10.040;2023-08-20T06:56:58;40423.16;;;-136.87
14666;BMP280;7420;53.574;10.040;2023-08-20T06:59:23;40260.56;;;-136.87
14666;BMP280;7420;53.574;10.040;2023-08-20T07:01:48;40435.34;;;-136.87
14666;BMP280;7420;53.574;10.040;2023-08-20T07:04:14;40575.59;;;-136.87
14666;BMP280;7420;53.574;10.040;2023-08-20T07:06:39;40547.13;;;-136.87
14666;BMP280;7420;53.574;10.040;2023-08-20T07:09:04;40658.94;;;-136.87
14666;BMP280;7420;53.574;10.040;2023-08-20T07:11:30;40167.06;;;-136.87
14666;BMP280;7420;53.574;10.040;2023-08-20T07:13:55;40376.41;;;-136.87
14666;BMP280;7420;53.574;10.040;2023-08-20T07:16:21;40106.09;;;-136.87
14666;BMP280;7420;53.574;10.040;2023-08-20T07:18:46;40032.94;;;-136.87
14666;BMP280;7420;53.574;10.040;2023-08-20T07:21:11;40083.75;;;-136.87
14666;BMP280;7420;53.574;10.040;2023-08-20T07:23:37;39955.72;;;-136.87
14666;BMP280;7420;53.574;10.040;2023-08-20T07:26:07;40173.19;;;-136.87
14666;BMP280;7420;53.574;10.040;2023-08-20T07:28:33;40199.59;;;-136.87
14666;BMP280;7420;53.574;10.040;2023-08-20T07:31:17;39789.09;;;-136.87
14666;BMP280;7420;53.574;10.040;2023-08-20T07:33:46;39870.38;;;-136.87
14666;BMP280;7420;53.574;10.040;2023-08-20T07:36:12;39618.41;;;-136.87
14666;BMP280;7420;53.574;10.040;2023-08-20T07:38:37;39476.19;;;-136.87
14666;BMP280;7420;53.574;10.040;2023-08-20T07:41:06;39398.97;;;-136.87
14666;BMP280;7420;53.574;10.040;2023-08-20T07:43:32;39346.16;;;-136.87
14666;BMP280;7420;53.574;10.040;2023-08-20T07:45:57;39145.03;;;-136.87
14666;BMP280;7420;53.574;10.040;2023-08-20T07:48:22;38830.16;;;-136.87
14666;BMP280;7420;53.574;10.040;2023-08-20T07:50:48;38375.16;;;-136.87
14666;BMP280;7420;53.574;10.040;2023-08-20T07:53:13;38088.81;;;-136.87
14666;BMP280;7420;53.574;10.040;2023-08-20T07:55:38;37885.75;;;-136.87
14666;BMP280;7420;53.574;10.040;2023-08-20T07:58:04;37711.13;;;-136.87
14666;BMP280;7420;53.574;10.040;2023-08-20T08:00:29;38208.63;;;-136.87
14666;BMP280;7420;53.574;10.040;2023-08-20T08:02:54;38687.97;;;-136.87
14666;BMP280;7420;53.574;10.040;2023-08-20T08:05:20;39100.31;;;-136.87
14666;BMP280;7420;53.574;10.040;2023-08-20T08:07:45;38269.56;;;-136.87
14666;BMP280;7420;53.574;10.040;2023-08-20T08:10:10;38354.88;;;-136.87
14666;BMP280;7420;53.574;10.040;2023-08-20T08:12:36;37944.63;;;-136.87
14666;BMP280;7420;53.574;10.040;2023-08-20T08:15:01;37765.94;;;-136.87
14666;BMP280;7420;53.574;10.040;2023-08-20T08:17:27;37558.84;;;-136.87
14666;BMP280;7420;53.574;10.040;2023-08-20T08:19:52;37465.44;;;-136.87
14666;BMP280;7420;53.574;10.040;2023-08-20T08:22:19;37095.94;;;-136.87
14666;BMP280;7420;53.574;10.040;2023-08-20T08:24:45;37242.13;;;-136.87
14666;BMP280;7420;53.574;10.040;2023-08-20T08:27:10;36976.19;;;-136.87
14666;BMP280;7420;53.574;10.040;2023-08-20T08:29:36;36592.53;;;-136.87
14666;BMP280;7420;53.574;10.040;2023-08-20T08:32:01;36698.09;;;-136.87
14666;BMP280;7420;53.574;10.040;2023-08-20T08:34:26;36596.59;;;-136.87
14666;BMP280;7420;53.574;10.040;2023-08-20T08:36:52;36369.28;;;-136.87
14666;BMP280;7420;53.574;10.040;2023-08-20T08:39:17;36137.94;;;-136.87
14666;BMP280;7420;53.574;10.040;2023-08-20T08:41:43;35821.38;;;-136.87
14666;BMP280;7420;53.574;10.040;2023-08-20T08:44:10;35504.84;;;-136.87
14666;BMP280;7420;53.574;10.040;2023-08-20T08:46:38;35488.63;;;-136.87
14666;BMP280;7420;53.574;10.040;2023-08-20T08:49:03;35521.06;;;-136.87
14666;BMP280;7420;53.574;10.040;2023-08-20T08:51:30;35657.00;;;-136.87
14666;BMP280;7420;53.574;10.040;2023-08-20T08:53:56;35677.31;;;-136.87
14666;BMP280;7420;53.574;10.040;2023-08-20T08:56:21;35458.19;;;-136.87
14666;BMP280;7420;53.574;10.040;2023-08-20T08:58:47;35261.38;;;-136.87
14666;BMP280;7420;53.574;10.040;2023-08-20T09:01:13;35064.63;;;-136.87
14666;BMP280;7420;53.574;10.040;2023-08-20T09:03:39;35082.88;;;-136.87
14666;BMP280;7420;53.574;10.040;2023-08-20T09:06:08;34906.38;;;-136.87
14666;BMP280;7420;53.574;10.040;2023-08-20T09:08:34;34614.31;;;-136.87
14666;BMP280;7420;53.574;10.040;2023-08-20T09:11:01;34255.34;;;-136.87
14666;BMP280;7420;53.574;10.040;2023-08-20T09:15:58;34204.63;;;-136.87
14666;BMP280;7420;53.574;10.040;2023-08-20T09:18:24;34401.34;;;-136.87
14666;BMP280;7420;53.574;10.040;2023-08-20T09:20:50;33987.66;;;-136.87
14666;BMP280;7420;53.574;10.040;2023-08-20T09:23:15;33833.53;;;-136.87
14666;BMP280;7420;53.574;10.040;2023-08-20T09:25:44;33977.50;;;-136.87
14666;BMP280;7420;53.574;10.040;2023-08-20T09:28:10;33458.47;;;-136.87
14666;BMP280;7420;53.574;10.040;2023-08-20T09:30:37;33383.44;;;-136.87
14666;BMP280;7420;53.574;10.040;2023-08-20T09:33:10;33055.03;;;-136.87
14666;BMP280;7420;53.574;10.040;2023-08-20T09:35:35;33484.81;;;-136.87
14666;BMP280;7420;53.574;10.040;2023-08-20T09:38:02;33501.03;;;-136.87
14666;BMP280;7420;53.574;10.040;2023-08-20T09:40:28;33580.09;;;-136.87
14666;BMP280;7420;53.574;10.040;2023-08-20T09:42:54;32900.97;;;-136.87
14666;BMP280;7420;53.574;10.040;2023-08-20T09:45:21;32444.94;;;-136.87
14666;BMP280;7420;53.574;10.040;2023-08-20T09:47:48;31928.19;;;-136.87
14666;BMP280;7420;53.574;10.040;2023-08-20T09:50:17;31129.97;;;-136.87
14666;BMP280;7420;53.574;10.040;2023-08-20T09:52:58;31968.72;;;-136.87
14666;BMP280;7420;53.574;10.040;2023-08-20T09:55:29;31995.06;;;-136.87
14666;BMP280;7420;53.574;10.040;2023-08-20T09:57:56;31984.94;;;-136.87
14666;BMP280;7420;53.574;10.040;2023-08-20T10:00:22;31454.09;;;-136.87
14666;BMP280;7420;53.574;10.040;2023-08-20T10:02:48;32542.22;;;-136.87
14666;BMP280;7420;53.574;10.040;2023-08-20T10:05:13;32639.50;;;-136.87
14666;BMP280;7420;53.574;10.040;2023-08-20T10:07:42;31770.16;;;-136.87
14666;BMP280;7420;53.574;10.040;2023-08-20T10:10:09;31676.94;;;-136.87
14666;BMP280;7420;53.574;10.040;2023-08-20T10:12:37;31638.47;;;-136.87
14666;BMP280;7420;53.574;10.040;2023-08-20T10:15:04;30801.81;;;-136.87
14666;BMP280;7420;53.574;10.040;2023-08-20T10:17:32;30538.53;;;-136.87
14666;BMP280;7420;53.574;10.040;2023-08-20T10:19:58;31085.41;;;-136.87
14666;BMP280;7420;53.574;10.040;2023-08-20T10:22:36;31502.72;;;-136.87
14666;BMP280;7420;53.574;10.040;2023-08-20T10:25:05;30566.88;;;-136.87
14666;BMP280;7420;53.574;10.040;2023-08-20T10:27:33;30988.16;;;-136.87
14666;BMP280;7420;53.574;10.040;2023-08-20T10:29:59;30291.47;;;-136.87
14666;BMP280;7420;53.574;10.040;2023-08-20T10:32:48;30244.88;;;-136.87
14666;BMP280;7420;53.574;10.040;2023-08-20T10:35:26;30526.38;;;-136.87
14666;BMP280;7420;53.574;10.040;2023-08-20T10:38:11;30293.47;;;-136.87
14666;BMP280;7420;53.574;10.040;2023-08-20T10:40:52;30003.91;;;-136.87
14666;BMP280;7420;53.574;10.040;2023-08-20T10:43:38;30530.44;;;-136.87
14666;BMP280;7420;53.574;10.040;2023-08-20T10:46:04;29092.88;;;-136.87
14666;BMP280;7420;53.574;10.040;2023-08-20T10:48:31;28655.69;;;-136.87
14666;BMP280;7420;53.574;10.040;2023-08-20T10:51:26;28503.91;;;-136.87
14666;BMP280;7420;53.574;10.040;2023-08-20T10:59:14;28732.59;;;-136.87
14666;BMP280;7420;53.574;10.040;2023-08-20T11:01:46;29566.56;;;-136.87
14666;BMP280;7420;53.574;10.040;2023-08-20T11:04:16;30007.97;;;-136.87
14666;BMP280;7420;53.574;10.040;2023-08-20T11:06:42;28752.84;;;-136.87
14666;BMP280;7420;53.574;10.040;2023-08-20T11:09:08;28305.56;;;-136.87
14666;BMP280;7420;53.574;10.040;2023-08-20T11:11:33;28192.25;;;-136.87
14666;BMP280;7420;53.574;10.040;2023-08-20T11:14:06;26857.06;;;-136.87
14666;BMP280;7420;53.574;10.040;2023-08-20T11:16:35;26339.31;;;-136.87
14666;BMP280;7420;53.574;10.040;2023-08-20T11:19:05;25285.97;;;-136.87
14666;BMP280;7420;53.574;10.040;2023-08-20T11:21:37;26739.75;;;-136.87
14666;BMP280;7420;53.574;10.040;2023-08-20T11:24:03;25795.41;;;-136.87
14666;BMP280;7420;53.574;10.040;2023-08-20T11:26:29;27401.16;;;-136.87
14666;BMP280;7420;53.574;10.040;2023-08-20T11:28:54;27836.13;;;-136.87
14666;BMP280;7420;53.574;10.040;2023-08-20T11:31:20;25888.41;;;-136.87
14666;BMP280;7420;53.574;10.040;2023-08-20T11:33:45;24905.97;;;-136.87
14666;BMP280;7420;53.574;10.040;2023-08-20T11:36:15;24461.38;;;-136.87
14666;BMP280;7420;53.574;10.040;2023-08-20T11:38:41;24526.03;;;-136.87
14666;BMP280;7420;53.574;10.040;2023-08-20T11:41:06;23727.91;;;-136.87
14666;BMP280;7420;53.574;10.040;2023-08-20T11:43:32;25876.28;;;-136.87
14666;BMP280;7420;53.574;10.040;2023-08-20T11:46:00;25811.59;;;-136.87
14666;BMP280;7420;53.574;10.040;2023-08-20T11:48:26;25229.38;;;-136.87
14666;BMP280;7420;53.574;10.040;2023-08-20T11:50:51;23501.66;;;-136.87
14666;BMP280;7420;53.574;10.040;2023-08-20T11:53:21;23077.47;;;-136.87
14666;BMP280;7420;53.574;10.040;2023-08-20T11:55:48;23051.22;;;-136.87
14666;BMP280;7420;53.574;10.040;2023-08-20T11:58:14;25443.66;;;-136.87
14666;BMP280;7420;53.574;10.040;2023-08-20T12:00:40;22251.50;;;-136.87
14666;BMP280;7420;53.574;10.040;2023-08-20T12:03:07;24958.53;;;-136.87
14666;BMP280;7420;53.574;10.040;2023-08-20T12:05:33;24679.63;;;-136.87
14666;BMP280;7420;53.574;10.040;2023-08-20T12:08:00;25352.69;;;-136.87
14666;BMP280;7420;53.574;10.040;2023-08-20T12:10:27;22152.56;;;-136.87
14666;BMP280;7420;53.574;10.040;2023-08-20T12:12:54;24194.63;;;-136.87
14666;BMP280;7420;53.574;10.040;2023-08-20T12:15:21;19823.50;;;-136.87
14666;BMP280;7420;53.574;10.040;2023-08-20T12:18:00;16972.41;;;-136.87
14666;BMP280;7420;53.574;10.040;2023-08-20T12:20:27;18127.41;;;-136.87
14666;BMP280;7420;53.574;10.040;2023-08-20T12:22:53;17635.50;;;-136.87
14666;BMP280;7420;53.574;10.040;2023-08-20T12:25:18;22098.06;;;-136.87
14666;BMP280;7420;53.574;10.040;2023-08-20T12:27:44;15515.75;;;-136.87
14666;BMP280;7420;53.574;10.040;2023-08-20T12:30:10;14212.84;;;-136.87
14666;BMP280;7420;53.574;10.040;2023-08-20T12:32:35;12667.09;;;-136.87
14666;BMP280;7420;53.574;10.040;2023-08-20T12:35:01;16017.31;;;-136.87
14666;BMP280;7420;53.574;10.040;2023-08-20T12:37:27;6749.84;;;-136.87
14666;BMP280;7420;53.574;10.040;2023-08-20T12:39:53;19274.84;;;-136.87
14666;BMP280;7420;53.574;10.040;2023-08-20T12:42:19;589.03;;;-136.87
14666;BMP280;7420;53.574;10.040;2023-08-20T12:44:44;21964.78;;;-136.87
14666;BMP280;7420;53.574;10.040;2023-08-20T12:47:09;23083.53;;;-136.87
14666;BMP280;7420;53.574;10.040;2023-08-20T12:49:35;21330.91;;;-136.87
14666;BMP280;7420;53.574;10.040;2023-08-20T12:52:00;845.44;;;-136.87
14666;BMP280;7420;53.574;10.040;2023-08-20T12:54:26;-436.41;;;-136.87
14666;BMP280;7420;53.574;10.040;2023-08-20T12:56:51;-2230.00;;;-136.87
14666;BMP280;7420;53.574;10.040;2023-08-20T12:59:17;-5046.09;;;-136.87
14666;BMP280;7420;53.574;10.040;2023-08-20T13:01:42;1358.38;;;-136.87
14666;BMP280;7420;53.574;10.040;2023-08-20T13:04:08;-6836.63;;;-136.87
14666;BMP280;7420;53.574;10.040;2023-08-20T13:06:34;16533.09;;;-136.87
14666;BMP280;7420;53.574;10.040;2023-08-20T13:09:00;-7347.97;;;-136.87
14666;BMP280;7420;53.574;10.040;2023-08-20T13:11:27;-7859.25;;;-136.87
14666;BMP280;7420;53.574;10.040;2023-08-20T13:13:53;-8114.84;;;-136.87
14666;BMP280;7420;53.574;10.040;2023-08-20T13:16:18;-8370.41;;;-136.87
14666;BMP280;7420;53.574;10.040;2023-08-20T13:18:45;-8625.94;;;-136.87
14666;BMP280;7420;53.574;10.040;2023-08-20T13:21:10;-9136.97;;;-136.87
14666;BMP280;7420;53.574;10.040;2023-08-20T13:23:35;12667.09;;;-136.87
14666;BMP280;7420;53.574;10.040;2023-08-20T13:26:01;-8625.94;;;-136.87
14666;BMP280;7420;53.574;10.040;2023-08-20T13:28:27;-9136.97;;;-136.87
14666;BMP280;7420;53.574;10.040;2023-08-20T13:30:52;11894.56;;;-136.87
14666;BMP280;7420;53.574;10.040;2023-08-20T13:33:17;-9647.91;;;-136.87
14666;BMP280;7420;53.574;10.040;2023-08-20T13:38:08;11637.09;;;-136.87
14666;BMP280;7420;53.574;10.040;2023-08-20T13:40:33;13439.88;;;-136.87
14666;BMP280;7420;53.574;10.040;2023-08-20T13:42:59;14470.56;;;-136.87
14666;BMP280;7420;53.574;10.040;2023-08-20T13:45:24;14986.06;;;-136.87
14666;BMP280;7420;53.574;10.040;2023-08-20T13:47:50;14728.28;;;-136.87
14666;BMP280;7420;53.574;10.040;2023-08-20T13:50:16;14212.84;;;-136.87
14666;BMP280;7420;53.574;10.040;2023-08-20T13:52:41;-8881.47;;;-136.87
14666;BMP280;7420;53.574;10.040;2023-08-20T13:55:07;11637.09;;;-136.87